Time;durP1;ratioP1;P1;durP2;ratioP2;P2;SDS_P1;SDS_P2;PMS_P1;PMS_P2;Temp;Humidity;BMP_temperature;BMP_pressure;BME280_temperature;BME280_humidity;BME280_pressure;Samples;Min_cycle;Max_cycle;Signal;HPM_P1;HPM_P2
2022/12/31 00:01:05;;;;;;;0.60;0.43;;;11.10;99.90;;;;;;5029156;28;20637;-69
2022/12/31 00:03:32;;;;;;;0.47;0.40;;;11.20;99.90;;;;;;5044177;28;20626;-70
2022/12/31 00:05:59;;;;;;;0.40;0.40;;;11.10;99.90;;;;;;5038995;28;20620;-69
2022/12/31 00:08:26;;;;;;;0.30;0.20;;;11.20;99.90;;;;;;5046803;28;20705;-69
2022/12/31 00:10:54;;;;;;;0.50;0.50;;;11.20;99.90;;;;;;5028613;28;20625;-69
2022/12/31 00:13:21;;;;;;;0.70;0.60;;;11.20;99.90;;;;;;5023335;28;20632;-69
2022/12/31 00:15:48;;;;;;;0.40;0.30;;;11.30;99.90;;;;;;5026841;28;20619;-70
2022/12/31 00:18:14;;;;;;;0.40;0.37;;;11.30;99.90;;;;;;5030490;28;20628;-70
2022/12/31 00:20:42;;;;;;;1.23;0.87;;;11.30;99.90;;;;;;5035454;28;20636;-70
2022/12/31 00:23:09;;;;;;;0.63;0.30;;;11.30;99.90;;;;;;5032447;28;21557;-70
2022/12/31 00:25:36;;;;;;;0.30;0.20;;;11.30;99.90;;;;;;5036350;28;20623;-69
2022/12/31 00:28:05;;;;;;;0.70;0.57;;;11.20;99.90;;;;;;5033113;28;20659;-71
2022/12/31 00:30:32;;;;;;;0.40;0.40;;;11.30;99.90;;;;;;5027313;28;20628;-69
2022/12/31 00:32:58;;;;;;;0.83;0.50;;;11.20;99.90;;;;;;5027119;28;20619;-69
2022/12/31 00:35:25;;;;;;;0.60;0.43;;;11.30;99.90;;;;;;5028282;28;20623;-69
2022/12/31 00:37:53;;;;;;;0.40;0.30;;;11.40;99.90;;;;;;5027676;28;20730;-70
2022/12/31 00:40:19;;;;;;;0.40;0.40;;;11.40;99.90;;;;;;5025702;28;20642;-69
2022/12/31 00:42:46;;;;;;;0.40;0.30;;;11.50;99.90;;;;;;5034638;28;20623;-69
2022/12/31 00:45:14;;;;;;;0.43;0.43;;;11.40;99.90;;;;;;5026455;28;20629;-70
2022/12/31 00:47:41;;;;;;;0.43;0.43;;;11.30;99.90;;;;;;5027302;28;20662;-70
2022/12/31 00:50:08;;;;;;;0.30;0.30;;;11.30;99.90;;;;;;5035701;28;20629;-69
2022/12/31 00:52:35;;;;;;;0.50;0.40;;;11.30;99.90;;;;;;5028699;28;20624;-69
2022/12/31 00:55:02;;;;;;;0.40;0.30;;;11.40;99.90;;;;;;5026518;28;20722;-71
2022/12/31 00:57:29;;;;;;;1.00;0.90;;;11.40;99.90;;;;;;5026706;28;20632;-70
2022/12/31 00:59:56;;;;;;;0.40;0.40;;;11.40;99.90;;;;;;5026498;28;21190;-69
2022/12/31 01:02:24;;;;;;;0.50;0.50;;;11.40;99.90;;;;;;5035615;28;20618;-70
2022/12/31 01:04:52;;;;;;;0.60;0.50;;;11.50;99.90;;;;;;5047193;28;20618;-69
2022/12/31 01:07:20;;;;;;;0.30;0.30;;;11.60;99.90;;;;;;5036440;28;20686;-69
2022/12/31 01:09:47;;;;;;;0.60;0.40;;;11.70;99.90;;;;;;5029008;28;20999;-70
2022/12/31 01:12:14;;;;;;;0.60;0.40;;;11.70;99.90;;;;;;5041967;28;21221;-69
2022/12/31 01:14:41;;;;;;;0.60;0.40;;;11.90;99.90;;;;;;5039216;28;20632;-69
2022/12/31 01:17:08;;;;;;;0.70;0.53;;;11.80;99.90;;;;;;5046960;28;21183;-69
2022/12/31 01:19:36;;;;;;;0.60;0.43;;;11.70;99.90;;;;;;5034390;28;20631;-69
2022/12/31 01:22:02;;;;;;;0.60;0.40;;;11.80;99.90;;;;;;5040245;28;20634;-71
2022/12/31 01:24:29;;;;;;;1.07;0.63;;;11.70;99.90;;;;;;5045884;28;20630;-69
2022/12/31 01:26:57;;;;;;;0.40;0.40;;;11.80;99.90;;;;;;5039302;28;20693;-69
2022/12/31 01:29:24;;;;;;;0.47;0.47;;;12.00;99.90;;;;;;5047181;28;20627;-69
2022/12/31 01:31:51;;;;;;;0.30;0.30;;;12.20;99.90;;;;;;5037334;28;20626;-69
2022/12/31 01:34:17;;;;;;;0.40;0.40;;;12.20;99.90;;;;;;5045281;28;20635;-69
2022/12/31 01:36:46;;;;;;;0.90;0.50;;;12.10;99.90;;;;;;5037861;28;21207;-69
2022/12/31 01:39:12;;;;;;;0.63;0.63;;;12.10;99.90;;;;;;5026421;28;20658;-71
2022/12/31 01:41:41;;;;;;;0.47;0.47;;;12.10;99.90;;;;;;5034022;28;20626;-69
2022/12/31 01:44:47;;;;;;;1.27;0.70;;;12.20;99.90;;;;;;5035781;28;20646;-69
2022/12/31 01:47:17;;;;;;;0.67;0.40;;;12.20;99.90;;;;;;5040059;28;21011;-70
2022/12/31 01:49:47;;;;;;;0.57;0.50;;;12.10;99.90;;;;;;5025900;28;20631;-69
2022/12/31 01:52:20;;;;;;;0.40;0.37;;;12.20;99.90;;;;;;5030467;28;20619;-69
2022/12/31 01:54:51;;;;;;;0.43;0.40;;;12.30;99.90;;;;;;5044927;28;20622;-69
2022/12/31 01:57:18;;;;;;;1.33;0.80;;;12.70;99.90;;;;;;5037817;28;20722;-70
2022/12/31 01:59:45;;;;;;;1.00;0.50;;;12.20;99.90;;;;;;5045120;28;21078;-69
2022/12/31 02:02:14;;;;;;;0.50;0.50;;;12.30;99.90;;;;;;5046258;28;21211;-70
2022/12/31 02:04:41;;;;;;;0.37;0.23;;;12.30;99.90;;;;;;5042417;28;20621;-70
2022/12/31 02:07:09;;;;;;;0.60;0.40;;;12.30;99.90;;;;;;5049689;28;20633;-69
2022/12/31 02:09:40;;;;;;;0.53;0.53;;;12.30;99.90;;;;;;5050266;28;21109;-70
2022/12/31 02:12:09;;;;;;;0.80;0.50;;;12.30;99.90;;;;;;5034366;28;20692;-69
2022/12/31 02:14:40;;;;;;;0.73;0.67;;;12.30;99.90;;;;;;5030214;28;21207;-69
2022/12/31 02:17:17;;;;;;;0.47;0.47;;;12.20;99.90;;;;;;5030525;28;20615;-69
2022/12/31 02:20:16;;;;;;;0.73;0.63;;;12.20;99.90;;;;;;5030357;28;20630;-69
2022/12/31 02:23:04;;;;;;;0.60;0.60;;;12.30;99.90;;;;;;5036634;28;21150;-69
2022/12/31 02:25:55;;;;;;;0.83;0.60;;;12.20;99.90;;;;;;5010566;28;20628;-69
2022/12/31 02:28:36;;;;;;;1.60;0.90;;;12.20;99.90;;;;;;5014496;28;20698;-69
2022/12/31 02:31:08;;;;;;;0.40;0.37;;;12.20;99.90;;;;;;5030737;28;21200;-70
2022/12/31 02:33:41;;;;;;;0.40;0.40;;;12.20;99.90;;;;;;5030727;28;20631;-69
2022/12/31 02:36:16;;;;;;;0.40;0.40;;;12.20;99.90;;;;;;5032599;28;20669;-70
2022/12/31 02:38:47;;;;;;;0.33;0.27;;;12.10;99.90;;;;;;5031738;28;20661;-69
2022/12/31 02:43:58;;;;;;;0.50;0.50;;;12.10;99.90;;;;;;5031783;28;20764;-69
2022/12/31 02:46:37;;;;;;;0.50;0.50;;;12.10;99.90;;;;;;5029988;28;20962;-69
2022/12/31 02:49:13;;;;;;;0.50;0.40;;;12.10;99.90;;;;;;5029552;28;21173;-69
2022/12/31 02:51:47;;;;;;;0.30;0.30;;;12.20;99.90;;;;;;5037226;28;20618;-69
2022/12/31 02:54:27;;;;;;;0.50;0.40;;;12.40;99.90;;;;;;5040030;28;20712;-70
2022/12/31 02:57:05;;;;;;;0.53;0.53;;;12.30;99.90;;;;;;5045345;28;20626;-70
2022/12/31 03:02:28;;;;;;;0.57;0.57;;;12.30;99.90;;;;;;5028852;28;20626;-69
2022/12/31 03:04:56;;;;;;;0.47;0.47;;;12.50;99.90;;;;;;5029457;28;20627;-69
2022/12/31 03:07:26;;;;;;;0.50;0.40;;;12.40;99.90;;;;;;5036293;28;20622;-69
2022/12/31 03:09:53;;;;;;;0.30;0.20;;;12.50;99.90;;;;;;5049186;28;21053;-69
2022/12/31 03:15:18;;;;;;;1.57;0.60;;;12.60;99.90;;;;;;5026867;28;20637;-69
2022/12/31 03:17:56;;;;;;;0.37;0.20;;;12.60;99.90;;;;;;5028986;28;20638;-69
2022/12/31 03:23:16;;;;;;;0.70;0.47;;;12.60;99.90;;;;;;5028349;28;20608;-69
2022/12/31 03:25:43;;;;;;;1.50;0.77;;;12.60;99.90;;;;;;5028140;28;20627;-70
2022/12/31 03:28:12;;;;;;;0.70;0.30;;;12.70;99.90;;;;;;5037307;28;21291;-69
2022/12/31 03:30:42;;;;;;;0.40;0.30;;;12.80;99.90;;;;;;5014188;28;20619;-69
2022/12/31 03:33:12;;;;;;;0.67;0.67;;;12.80;99.90;;;;;;5028352;28;20635;-69
2022/12/31 03:35:42;;;;;;;0.43;0.43;;;12.90;99.90;;;;;;5029015;28;21028;-70
2022/12/31 03:38:09;;;;;;;0.30;0.20;;;12.90;99.90;;;;;;5046141;28;20619;-69
2022/12/31 03:40:40;;;;;;;0.70;0.70;;;12.80;99.90;;;;;;5045807;28;21209;-69
2022/12/31 03:43:08;;;;;;;0.40;0.40;;;12.90;99.90;;;;;;5027803;28;20708;-70
2022/12/31 03:45:36;;;;;;;0.97;0.70;;;12.80;99.90;;;;;;5028669;28;20652;-69
2022/12/31 03:48:07;;;;;;;0.50;0.43;;;12.90;99.90;;;;;;5028105;28;20655;-70
2022/12/31 03:50:36;;;;;;;0.50;0.50;;;12.90;99.90;;;;;;5028515;28;20697;-69
2022/12/31 03:53:05;;;;;;;0.40;0.30;;;13.10;99.90;;;;;;5028038;28;21153;-70
2022/12/31 03:55:32;;;;;;;0.63;0.50;;;13.20;99.90;;;;;;5029352;28;21205;-70
2022/12/31 03:58:00;;;;;;;0.40;0.30;;;13.20;99.90;;;;;;5044483;28;21168;-70
2022/12/31 04:00:28;;;;;;;0.90;0.50;;;13.40;99.90;;;;;;5028118;28;21089;-70
2022/12/31 04:02:56;;;;;;;0.50;0.50;;;13.50;99.90;;;;;;5027214;28;20627;-70
2022/12/31 04:05:25;;;;;;;0.50;0.40;;;13.40;99.90;;;;;;5040031;28;21214;-69
2022/12/31 04:07:54;;;;;;;0.80;0.63;;;13.40;99.90;;;;;;5032723;28;20690;-69
2022/12/31 04:10:21;;;;;;;0.30;0.20;;;13.40;99.90;;;;;;5028216;28;20663;-69
2022/12/31 04:12:48;;;;;;;0.60;0.60;;;13.40;99.90;;;;;;5027591;28;21055;-69
2022/12/31 04:15:17;;;;;;;0.30;0.30;;;13.30;99.90;;;;;;5026674;28;20712;-69
2022/12/31 04:17:44;;;;;;;0.57;0.47;;;13.40;99.90;;;;;;5040409;28;21010;-69
2022/12/31 04:20:11;;;;;;;0.30;0.20;;;13.30;99.90;;;;;;5033045;28;20638;-70
2022/12/31 04:22:38;;;;;;;0.40;0.30;;;13.40;99.90;;;;;;5027316;28;20620;-69
2022/12/31 04:25:10;;;;;;;0.40;0.40;;;13.50;99.90;;;;;;5033376;28;20627;-69
2022/12/31 04:27:38;;;;;;;0.97;0.77;;;13.50;99.90;;;;;;5034253;28;20619;-69
2022/12/31 04:30:05;;;;;;;0.50;0.50;;;13.50;99.90;;;;;;5028164;28;20628;-69
2022/12/31 04:32:32;;;;;;;0.40;0.30;;;13.50;99.90;;;;;;5041624;28;20630;-69
2022/12/31 04:34:59;;;;;;;0.40;0.40;;;13.40;99.90;;;;;;5032915;28;20619;-69
2022/12/31 04:37:26;;;;;;;0.40;0.40;;;13.30;99.90;;;;;;5029242;28;20631;-69
2022/12/31 04:39:52;;;;;;;0.53;0.50;;;13.30;99.90;;;;;;5022175;28;20619;-70
2022/12/31 04:42:20;;;;;;;0.40;0.40;;;13.20;99.90;;;;;;5036031;28;20628;-69
2022/12/31 04:44:47;;;;;;;0.63;0.60;;;13.20;99.90;;;;;;5039547;28;20741;-69
2022/12/31 04:47:14;;;;;;;0.53;0.53;;;13.20;99.90;;;;;;5037019;28;20632;-69
2022/12/31 04:49:41;;;;;;;0.67;0.40;;;13.20;99.90;;;;;;5027613;28;20677;-70
2022/12/31 04:52:07;;;;;;;0.50;0.50;;;13.20;99.90;;;;;;5025849;28;20619;-69
2022/12/31 04:54:34;;;;;;;0.83;0.60;;;13.20;99.90;;;;;;5028683;28;20623;-69
2022/12/31 04:57:01;;;;;;;0.30;0.30;;;13.10;99.90;;;;;;5035478;28;20657;-70
2022/12/31 04:59:29;;;;;;;0.50;0.50;;;13.10;99.90;;;;;;5033940;28;20627;-69
2022/12/31 05:01:56;;;;;;;0.50;0.50;;;13.10;99.90;;;;;;5035203;28;20619;-69
2022/12/31 05:04:23;;;;;;;0.70;0.50;;;13.00;99.90;;;;;;5045360;28;21406;-69
2022/12/31 05:06:49;;;;;;;0.50;0.30;;;13.00;99.90;;;;;;5037949;28;20650;-70
2022/12/31 05:09:16;;;;;;;0.30;0.30;;;13.00;99.90;;;;;;5027236;28;20667;-69
2022/12/31 05:11:43;;;;;;;0.70;0.50;;;13.00;99.90;;;;;;5036538;28;20630;-70
2022/12/31 05:14:10;;;;;;;0.40;0.30;;;13.00;99.90;;;;;;5046420;28;20629;-69
2022/12/31 05:16:38;;;;;;;0.40;0.37;;;13.10;99.90;;;;;;5046955;28;20626;-69
2022/12/31 05:19:08;;;;;;;0.33;0.33;;;13.00;99.90;;;;;;5045391;28;20628;-69
2022/12/31 05:21:35;;;;;;;0.60;0.40;;;13.00;99.90;;;;;;5035488;28;20631;-69
2022/12/31 05:24:02;;;;;;;1.90;0.40;;;13.00;99.90;;;;;;5026921;28;21212;-70
2022/12/31 05:26:29;;;;;;;0.40;0.40;;;13.00;99.90;;;;;;5026688;28;20624;-69
2022/12/31 05:28:56;;;;;;;1.53;0.70;;;13.00;99.90;;;;;;5028163;28;21126;-69
2022/12/31 05:31:23;;;;;;;1.27;0.40;;;13.00;99.90;;;;;;5031616;28;20676;-69
2022/12/31 05:33:51;;;;;;;0.30;0.20;;;12.90;99.90;;;;;;5044887;28;20631;-69
2022/12/31 05:36:17;;;;;;;0.60;0.40;;;12.90;99.90;;;;;;5044755;28;21226;-69
2022/12/31 05:38:44;;;;;;;0.33;0.33;;;12.90;99.90;;;;;;5046179;28;21187;-70
2022/12/31 05:41:11;;;;;;;0.50;0.40;;;13.00;99.90;;;;;;5033844;28;20642;-69
2022/12/31 05:43:38;;;;;;;0.40;0.40;;;13.00;99.90;;;;;;5031814;28;20641;-69
2022/12/31 05:46:05;;;;;;;0.50;0.43;;;13.00;99.90;;;;;;5028589;28;20644;-69
2022/12/31 05:48:32;;;;;;;0.50;0.37;;;12.90;99.90;;;;;;5046074;28;20649;-69
2022/12/31 05:51:00;;;;;;;0.60;0.40;;;12.80;99.90;;;;;;5042679;28;20626;-69
2022/12/31 05:53:27;;;;;;;0.40;0.30;;;12.80;99.90;;;;;;5026772;28;20625;-69
2022/12/31 05:55:54;;;;;;;0.60;0.30;;;12.90;99.90;;;;;;5035337;28;20628;-69
2022/12/31 05:58:21;;;;;;;0.60;0.40;;;12.80;99.90;;;;;;5026969;28;20631;-71
2022/12/31 06:00:47;;;;;;;0.40;0.40;;;12.80;99.90;;;;;;5034784;28;20642;-69
2022/12/31 06:03:14;;;;;;;0.33;0.33;;;12.80;99.90;;;;;;5046628;28;21210;-69
2022/12/31 06:05:42;;;;;;;0.60;0.60;;;12.70;99.90;;;;;;5044915;28;20635;-69
2022/12/31 06:08:12;;;;;;;0.70;0.43;;;12.40;99.90;;;;;;5046019;28;20622;-70
2022/12/31 06:10:39;;;;;;;0.50;0.40;;;12.80;99.90;;;;;;5033213;28;20634;-69
2022/12/31 06:13:07;;;;;;;0.70;0.40;;;12.80;99.90;;;;;;5023974;28;20619;-70
2022/12/31 06:15:36;;;;;;;0.60;0.53;;;12.90;99.90;;;;;;5026136;28;20619;-69
2022/12/31 06:18:03;;;;;;;0.40;0.40;;;12.90;99.90;;;;;;5026336;28;20619;-69
2022/12/31 06:20:30;;;;;;;0.70;0.70;;;12.90;99.90;;;;;;5033832;28;20626;-70
2022/12/31 06:22:56;;;;;;;0.87;0.40;;;12.90;99.90;;;;;;5026111;28;20623;-70
2022/12/31 06:25:24;;;;;;;0.60;0.60;;;12.80;99.90;;;;;;5040675;28;21226;-70
2022/12/31 06:27:51;;;;;;;0.40;0.40;;;12.90;99.90;;;;;;5046128;28;20618;-69
2022/12/31 06:30:18;;;;;;;0.43;0.30;;;12.90;99.90;;;;;;5040175;28;20672;-69
2022/12/31 06:32:45;;;;;;;0.40;0.40;;;12.90;99.90;;;;;;5033894;28;20634;-69
2022/12/31 06:35:12;;;;;;;0.57;0.43;;;12.90;99.90;;;;;;5026661;28;20623;-69
2022/12/31 06:37:38;;;;;;;0.50;0.40;;;12.80;99.90;;;;;;5025218;28;20607;-69
2022/12/31 06:40:07;;;;;;;0.50;0.50;;;12.90;99.90;;;;;;5033221;28;20754;-69
2022/12/31 06:42:35;;;;;;;0.70;0.70;;;13.00;99.90;;;;;;5030568;28;20643;-69
2022/12/31 06:45:02;;;;;;;0.40;0.30;;;13.00;99.90;;;;;;5029877;28;20653;-70
2022/12/31 06:47:28;;;;;;;0.50;0.50;;;13.00;99.90;;;;;;5029249;28;20622;-70
2022/12/31 06:49:55;;;;;;;0.33;0.33;;;13.00;99.90;;;;;;5030043;28;20667;-69
2022/12/31 06:52:22;;;;;;;0.60;0.40;;;13.00;99.90;;;;;;5029182;28;20631;-69
2022/12/31 06:54:49;;;;;;;0.57;0.57;;;13.00;99.90;;;;;;5029690;28;20631;-70
2022/12/31 06:57:17;;;;;;;0.50;0.40;;;13.00;99.90;;;;;;5029401;28;21025;-69
2022/12/31 06:59:46;;;;;;;0.37;0.20;;;12.90;99.90;;;;;;5030655;28;20629;-70
2022/12/31 07:02:23;;;;;;;1.83;0.60;;;13.00;99.90;;;;;;5028435;28;20637;-69
2022/12/31 07:05:06;;;;;;;0.30;0.30;;;12.90;99.90;;;;;;5027231;28;20619;-69
2022/12/31 07:07:38;;;;;;;2.90;1.20;;;12.90;99.90;;;;;;5030123;28;21218;-69
2022/12/31 07:10:17;;;;;;;1.13;1.10;;;12.80;99.90;;;;;;5029306;28;20665;-71
2022/12/31 07:13:00;;;;;;;1.00;0.60;;;12.80;99.90;;;;;;5028590;28;20633;-69
2022/12/31 07:15:44;;;;;;;0.50;0.40;;;12.90;99.90;;;;;;5028142;28;20626;-69
2022/12/31 07:18:21;;;;;;;0.60;0.50;;;13.00;99.90;;;;;;5028063;28;20635;-69
2022/12/31 07:20:48;;;;;;;0.47;0.47;;;13.10;99.90;;;;;;5028034;28;20633;-69
2022/12/31 07:23:16;;;;;;;0.50;0.50;;;13.00;99.90;;;;;;5028800;28;20619;-69
2022/12/31 07:26:04;;;;;;;0.40;0.40;;;13.00;99.90;;;;;;5030279;28;20980;-69
2022/12/31 07:28:44;;;;;;;0.57;0.47;;;12.90;99.90;;;;;;5027324;28;20637;-69
2022/12/31 07:31:22;;;;;;;0.40;0.30;;;13.10;99.90;;;;;;5026514;28;20623;-70
2022/12/31 07:33:58;;;;;;;0.40;0.33;;;12.90;99.90;;;;;;5028009;28;20635;-68
2022/12/31 07:36:54;;;;;;;0.40;0.40;;;13.00;99.90;;;;;;5029151;28;20635;-68
2022/12/31 07:39:31;;;;;;;0.40;0.40;;;13.20;99.90;;;;;;5025462;28;20671;-68
2022/12/31 07:42:03;;;;;;;4.80;0.90;;;13.20;99.90;;;;;;5024831;28;21216;-68
2022/12/31 07:44:39;;;;;;;0.67;0.50;;;13.20;99.90;;;;;;5027908;28;20989;-68
2022/12/31 07:47:19;;;;;;;0.47;0.30;;;13.20;99.90;;;;;;5030102;28;20649;-68
2022/12/31 07:49:46;;;;;;;0.77;0.50;;;13.30;99.90;;;;;;5028109;28;20757;-69
2022/12/31 07:52:14;;;;;;;0.73;0.70;;;13.30;99.90;;;;;;5026144;28;20964;-69
2022/12/31 07:54:41;;;;;;;0.60;0.60;;;13.30;99.90;;;;;;5028711;28;21004;-69
2022/12/31 07:57:08;;;;;;;1.00;1.00;;;13.30;99.90;;;;;;5028533;28;20619;-69
2022/12/31 07:59:48;;;;;;;0.80;0.80;;;13.20;99.90;;;;;;5036952;28;20728;-69
2022/12/31 08:02:31;;;;;;;0.60;0.60;;;13.20;99.90;;;;;;5045630;28;20625;-68
2022/12/31 08:05:08;;;;;;;3.50;1.60;;;13.20;99.90;;;;;;5038883;28;20627;-69
2022/12/31 08:07:41;;;;;;;0.50;0.50;;;13.30;99.90;;;;;;5030230;28;20627;-68
2022/12/31 08:10:14;;;;;;;0.50;0.30;;;13.30;99.90;;;;;;5026206;28;20666;-69
2022/12/31 08:12:41;;;;;;;0.50;0.30;;;13.30;99.90;;;;;;5026484;28;20627;-69
2022/12/31 08:15:13;;;;;;;0.60;0.60;;;13.30;99.90;;;;;;5024806;28;20616;-69
2022/12/31 08:17:42;;;;;;;0.40;0.40;;;13.40;99.90;;;;;;5028220;28;21005;-68
2022/12/31 08:20:13;;;;;;;0.87;0.50;;;13.50;99.90;;;;;;5025733;28;20629;-68
2022/12/31 08:23:01;;;;;;;0.40;0.30;;;13.50;99.90;;;;;;5026843;28;20631;-68
2022/12/31 08:25:37;;;;;;;0.40;0.40;;;13.50;99.90;;;;;;5015849;28;20638;-69
2022/12/31 08:28:13;;;;;;;0.57;0.57;;;13.60;99.90;;;;;;5027457;28;20631;-69
2022/12/31 08:30:50;;;;;;;0.30;0.30;;;13.60;99.90;;;;;;5027760;28;21167;-69
2022/12/31 08:33:21;;;;;;;1.17;0.50;;;13.60;99.90;;;;;;5014805;28;21181;-70
2022/12/31 08:35:59;;;;;;;0.60;0.60;;;13.70;99.90;;;;;;5027622;28;20635;-69
2022/12/31 08:38:33;;;;;;;0.40;0.40;;;13.60;99.90;;;;;;5027798;28;21082;-69
2022/12/31 08:41:08;;;;;;;0.60;0.60;;;13.80;99.90;;;;;;5027815;28;20650;-69
2022/12/31 08:43:48;;;;;;;0.70;0.60;;;13.80;99.90;;;;;;5027641;28;20635;-69
2022/12/31 08:46:20;;;;;;;0.43;0.40;;;13.90;99.90;;;;;;5024660;28;20622;-70
2022/12/31 08:48:49;;;;;;;0.50;0.37;;;13.90;99.90;;;;;;5027246;28;20627;-69
2022/12/31 08:51:20;;;;;;;1.00;0.63;;;13.90;99.90;;;;;;5021993;28;20671;-69
2022/12/31 08:53:48;;;;;;;0.70;0.70;;;14.00;99.90;;;;;;5027991;28;21283;-69
2022/12/31 08:56:27;;;;;;;0.67;0.50;;;14.00;99.90;;;;;;5024809;28;20283;-69
2022/12/31 08:59:14;;;;;;;0.40;0.40;;;13.90;99.90;;;;;;5023691;28;20626;-70
2022/12/31 09:02:00;;;;;;;0.57;0.57;;;14.00;99.90;;;;;;5025643;28;21035;-69
2022/12/31 09:04:40;;;;;;;0.40;0.40;;;13.90;99.90;;;;;;5026099;28;20634;-69
2022/12/31 09:07:10;;;;;;;1.33;0.40;;;13.90;99.90;;;;;;5025724;28;21223;-70
2022/12/31 09:09:47;;;;;;;0.80;0.80;;;14.00;99.90;;;;;;5027115;28;20659;-69
2022/12/31 09:12:21;;;;;;;2.10;0.90;;;14.00;99.90;;;;;;5024483;28;20623;-69
2022/12/31 09:14:50;;;;;;;1.60;0.87;;;14.10;99.90;;;;;;5029085;28;20619;-69
2022/12/31 09:17:36;;;;;;;0.60;0.50;;;14.10;99.90;;;;;;5028245;28;20623;-69
2022/12/31 09:20:06;;;;;;;1.60;0.40;;;14.20;99.90;;;;;;5027106;28;20631;-69
2022/12/31 09:22:33;;;;;;;0.60;0.60;;;14.10;99.90;;;;;;5027492;28;20627;-69
2022/12/31 09:25:00;;;;;;;0.40;0.40;;;14.20;99.90;;;;;;5032465;28;20638;-69
2022/12/31 09:27:37;;;;;;;0.40;0.40;;;14.30;99.90;;;;;;5041149;28;21184;-69
2022/12/31 09:30:07;;;;;;;0.70;0.70;;;14.40;99.90;;;;;;5041816;28;21008;-70
2022/12/31 09:32:42;;;;;;;0.50;0.50;;;14.40;99.90;;;;;;5047419;28;20640;-69
2022/12/31 09:35:19;;;;;;;0.40;0.40;;;14.60;99.90;;;;;;5045447;28;20985;-69
2022/12/31 09:37:48;;;;;;;0.80;0.73;;;14.80;99.90;;;;;;5047322;28;20634;-69
2022/12/31 09:40:40;;;;;;;0.70;0.70;;;14.80;99.90;;;;;;5038398;28;20633;-69
2022/12/31 09:43:40;;;;;;;0.60;0.50;;;14.80;99.90;;;;;;5032532;28;20647;-69
2022/12/31 09:46:29;;;;;;;0.40;0.33;;;14.80;99.90;;;;;;5027019;28;20623;-69
2022/12/31 09:49:21;;;;;;;0.73;0.70;;;14.90;99.90;;;;;;5011404;28;20627;-69
2022/12/31 09:52:04;;;;;;;0.83;0.53;;;15.00;99.90;;;;;;5007025;28;21399;-69
2022/12/31 09:54:45;;;;;;;0.40;0.27;;;15.10;99.90;;;;;;5022284;28;20622;-69
2022/12/31 09:57:30;;;;;;;1.00;0.40;;;15.20;99.90;;;;;;5022425;28;20627;-70
2022/12/31 10:00:03;;;;;;;0.43;0.40;;;15.20;99.90;;;;;;5024564;28;20634;-69
2022/12/31 10:02:58;;;;;;;0.80;0.80;;;15.20;99.90;;;;;;5026071;28;20626;-70
2022/12/31 10:05:55;;;;;;;0.50;0.30;;;15.30;99.90;;;;;;5024321;28;20709;-69
2022/12/31 10:08:40;;;;;;;0.60;0.60;;;15.30;99.90;;;;;;5010141;28;20739;-69
2022/12/31 10:11:18;;;;;;;0.50;0.50;;;15.40;99.90;;;;;;5044835;28;20662;-70
2022/12/31 10:14:08;;;;;;;0.40;0.40;;;15.40;99.90;;;;;;5030236;28;21188;-69
2022/12/31 10:16:49;;;;;;;0.40;0.40;;;15.50;99.90;;;;;;5031478;28;20627;-69
2022/12/31 10:19:44;;;;;;;0.60;0.60;;;15.60;99.70;;;;;;5037673;28;20721;-70
2022/12/31 10:22:30;;;;;;;0.70;0.30;;;15.50;99.40;;;;;;5008896;28;20628;-70
2022/12/31 10:25:20;;;;;;;0.40;0.30;;;15.50;99.70;;;;;;5023276;28;20633;-71
2022/12/31 10:27:54;;;;;;;0.93;0.60;;;15.70;99.00;;;;;;5027867;28;20629;-69
2022/12/31 10:30:23;;;;;;;0.70;0.63;;;15.70;98.90;;;;;;5026605;28;20662;-69
2022/12/31 10:33:06;;;;;;;0.60;0.47;;;15.70;99.10;;;;;;5030711;28;20633;-69
2022/12/31 10:35:41;;;;;;;0.40;0.20;;;15.80;99.00;;;;;;5028037;28;20615;-70
2022/12/31 10:38:22;;;;;;;0.30;0.30;;;15.80;98.80;;;;;;5026544;28;20625;-70
2022/12/31 10:41:43;;;;;;;0.87;0.60;;;15.90;98.10;;;;;;5028635;28;20627;-71
2022/12/31 10:44:45;;;;;;;1.30;0.83;;;16.00;98.10;;;;;;5015258;28;20639;-70
2022/12/31 10:47:30;;;;;;;2.23;0.70;;;16.00;97.90;;;;;;5028513;28;20792;-70
2022/12/31 10:50:21;;;;;;;1.10;0.60;;;16.00;98.10;;;;;;5028165;28;20673;-70
2022/12/31 10:53:17;;;;;;;0.40;0.40;;;16.00;98.40;;;;;;5025823;28;20748;-71
2022/12/31 10:56:23;;;;;;;0.40;0.40;;;15.90;98.30;;;;;;5028272;28;21290;-69
2022/12/31 10:59:52;;;;;;;0.30;0.30;;;16.00;97.90;;;;;;5003366;28;20627;-70
2022/12/31 11:02:53;;;;;;;0.63;0.63;;;16.10;98.00;;;;;;4985912;28;21024;-70
2022/12/31 11:06:05;;;;;;;0.80;0.47;;;16.10;98.00;;;;;;4962654;28;20625;-70
2022/12/31 11:09:03;;;;;;;0.60;0.50;;;16.10;97.20;;;;;;4982021;28;20719;-69
2022/12/31 11:11:42;;;;;;;0.77;0.50;;;16.20;97.20;;;;;;5027602;28;20669;-70
2022/12/31 11:14:28;;;;;;;0.87;0.60;;;16.20;97.30;;;;;;5027768;28;20721;-70
2022/12/31 11:17:10;;;;;;;0.40;0.30;;;16.30;97.10;;;;;;5028818;28;20631;-69
2022/12/31 11:19:51;;;;;;;0.70;0.47;;;16.30;96.80;;;;;;5027583;28;20627;-69
2022/12/31 11:22:41;;;;;;;1.03;0.50;;;16.30;96.90;;;;;;5026747;28;20624;-70
2022/12/31 11:25:35;;;;;;;0.63;0.63;;;16.40;96.50;;;;;;5028483;28;20731;-70
2022/12/31 11:28:33;;;;;;;0.40;0.40;;;16.50;96.50;;;;;;5028235;28;20631;-70
2022/12/31 11:31:15;;;;;;;0.43;0.30;;;16.50;95.90;;;;;;5026192;28;20674;-70
2022/12/31 11:33:55;;;;;;;0.70;0.60;;;16.50;96.10;;;;;;5028083;28;20623;-70
2022/12/31 11:36:32;;;;;;;0.50;0.40;;;16.60;95.70;;;;;;5027583;28;20753;-70
2022/12/31 11:39:20;;;;;;;0.40;0.40;;;16.50;96.30;;;;;;5029732;28;20634;-70
2022/12/31 11:41:51;;;;;;;0.73;0.70;;;16.50;95.90;;;;;;5027424;28;20620;-69
2022/12/31 11:44:34;;;;;;;0.50;0.50;;;16.50;95.90;;;;;;5027446;28;20646;-69
2022/12/31 11:47:14;;;;;;;0.60;0.30;;;16.70;95.90;;;;;;5027602;28;20626;-69
2022/12/31 11:50:02;;;;;;;0.50;0.30;;;16.60;95.80;;;;;;5026560;28;20630;-70
2022/12/31 11:52:55;;;;;;;1.10;1.00;;;16.70;95.70;;;;;;5026241;28;20630;-71
2022/12/31 11:55:41;;;;;;;0.50;0.30;;;16.70;95.80;;;;;;5027127;28;20632;-70
2022/12/31 11:58:13;;;;;;;0.80;0.63;;;16.80;95.40;;;;;;5024513;28;21381;-70
2022/12/31 12:00:47;;;;;;;0.50;0.30;;;16.80;96.20;;;;;;5027434;28;20631;-70
2022/12/31 12:03:14;;;;;;;0.80;0.40;;;16.70;96.10;;;;;;5030392;28;21030;-70
2022/12/31 12:05:41;;;;;;;0.30;0.30;;;16.70;95.90;;;;;;5035127;28;20708;-70
2022/12/31 12:08:08;;;;;;;0.50;0.33;;;16.80;95.30;;;;;;5028834;28;20631;-69
2022/12/31 12:10:44;;;;;;;0.47;0.33;;;16.80;95.40;;;;;;5024941;28;20678;-70
2022/12/31 12:13:18;;;;;;;0.40;0.40;;;16.80;95.60;;;;;;5026559;28;20631;-70
2022/12/31 12:15:48;;;;;;;0.30;0.30;;;16.90;95.00;;;;;;5027139;28;20631;-70
2022/12/31 12:18:26;;;;;;;0.40;0.40;;;17.00;94.80;;;;;;5027700;28;21161;-70
2022/12/31 12:21:00;;;;;;;0.90;0.40;;;17.00;95.40;;;;;;5026428;28;20630;-69
2022/12/31 12:23:27;;;;;;;1.20;0.53;;;17.00;95.10;;;;;;5031813;28;20642;-70
2022/12/31 12:25:56;;;;;;;1.13;0.70;;;17.00;95.00;;;;;;5027604;28;20627;-70
2022/12/31 12:28:25;;;;;;;0.63;0.50;;;17.00;95.30;;;;;;5028558;28;20826;-71
2022/12/31 12:30:59;;;;;;;0.50;0.40;;;17.00;95.70;;;;;;5027960;28;20666;-70
2022/12/31 12:33:27;;;;;;;0.50;0.50;;;17.00;95.20;;;;;;5026866;28;20634;-71
2022/12/31 12:35:54;;;;;;;0.40;0.30;;;17.10;95.00;;;;;;5028004;28;20642;-70
2022/12/31 12:38:23;;;;;;;0.30;0.20;;;17.10;94.30;;;;;;5027770;28;20626;-70
2022/12/31 12:40:58;;;;;;;0.50;0.33;;;17.10;93.80;;;;;;5030940;28;20630;-70
2022/12/31 12:43:26;;;;;;;0.40;0.30;;;17.20;94.00;;;;;;5026719;28;20641;-70
2022/12/31 12:45:58;;;;;;;0.40;0.27;;;17.20;94.30;;;;;;5026718;28;20627;-72
2022/12/31 12:48:32;;;;;;;0.30;0.30;;;17.20;94.10;;;;;;5025057;28;20623;-69
2022/12/31 12:51:00;;;;;;;0.50;0.43;;;17.30;93.50;;;;;;5028046;28;20696;-68
2022/12/31 12:53:43;;;;;;;0.73;0.43;;;17.40;93.30;;;;;;5027969;28;20636;-67
2022/12/31 12:56:26;;;;;;;0.30;0.20;;;17.30;93.40;;;;;;5025024;28;20630;-68
2022/12/31 12:59:08;;;;;;;0.50;0.50;;;17.50;92.60;;;;;;5026428;28;20623;-68
2022/12/31 13:01:42;;;;;;;0.40;0.30;;;17.40;93.40;;;;;;5025972;28;20632;-68
2022/12/31 13:04:26;;;;;;;0.30;0.30;;;17.50;92.50;;;;;;5025822;28;20626;-68
2022/12/31 13:07:05;;;;;;;1.80;0.40;;;17.40;92.80;;;;;;5025114;28;20631;-67
2022/12/31 13:09:49;;;;;;;0.60;0.57;;;17.50;92.90;;;;;;5025465;28;20619;-68
2022/12/31 13:12:24;;;;;;;0.40;0.30;;;17.50;92.70;;;;;;5025716;28;20663;-67
2022/12/31 13:14:59;;;;;;;0.40;0.40;;;17.40;93.20;;;;;;5025323;28;20635;-68
2022/12/31 13:17:52;;;;;;;0.30;0.30;;;17.30;93.20;;;;;;5027056;28;20631;-68
2022/12/31 13:20:26;;;;;;;0.30;0.30;;;17.20;93.80;;;;;;5023629;28;20630;-68
2022/12/31 13:22:58;;;;;;;0.30;0.27;;;17.10;93.40;;;;;;5023349;28;20634;-69
2022/12/31 13:25:35;;;;;;;0.40;0.30;;;17.10;93.00;;;;;;5019824;28;20701;-68
2022/12/31 13:28:09;;;;;;;0.30;0.30;;;17.10;93.00;;;;;;5006340;28;20723;-68
2022/12/31 13:30:40;;;;;;;0.30;0.30;;;17.10;92.80;;;;;;5037519;28;20629;-67
2022/12/31 13:33:15;;;;;;;1.00;1.00;;;17.10;93.30;;;;;;5026543;28;20650;-69